Time;durP1;ratioP1;P1;durP2;ratioP2;P2;SDS_P1;SDS_P2;PMS_P1;PMS_P2;Temp;Humidity;BMP_temperature;BMP_pressure;BME280_temperature;BME280_humidity;BME280_pressure;Samples;Min_cycle;Max_cycle;Signal;HPM_P1;HPM_P2
2023/02/10 00:00:08;;;;;;;;;;;;;;;21.86;35.07;103424.91;7251045;19;154885;-59
2023/02/10 00:02:35;;;;;;;;;;;;;;;21.88;35.50;103419.88;7252000;19;153399;-59
2023/02/10 00:05:01;;;;;;;;;;;;;;;21.89;35.06;103419.63;7251489;19;155096;-59
2023/02/10 00:07:28;;;;;;;;;;;;;;;21.92;35.41;103423.88;7251357;19;153971;-60
2023/02/10 00:09:55;;;;;;;;;;;;;;;21.93;35.28;103412.41;7257910;19;153213;-59
2023/02/10 00:12:22;;;;;;;;;;;;;;;21.95;35.21;103401.72;7247212;19;152735;-60
2023/02/10 00:14:49;;;;;;;;;;;;;;;21.95;35.39;103410.16;7251619;19;153368;-60
2023/02/10 00:17:17;;;;;;;;;;;;;;;21.98;35.38;103406.00;7250637;19;152981;-60
2023/02/10 00:19:44;;;;;;;;;;;;;;;21.98;35.76;103406.00;7249816;19;155476;-59
2023/02/10 00:22:11;;;;;;;;;;;;;;;21.99;35.59;103404.88;7206727;19;158722;-59
2023/02/10 00:24:37;;;;;;;;;;;;;;;21.94;35.24;103405.66;7247875;19;154096;-59
2023/02/10 00:27:04;;;;;;;;;;;;;;;21.98;35.74;103398.41;7252902;19;153866;-59
2023/02/10 00:29:31;;;;;;;;;;;;;;;21.99;35.29;103404.88;7250824;19;153639;-59
2023/02/10 00:31:58;;;;;;;;;;;;;;;21.99;35.44;103407.69;7258601;19;152793;-59
2023/02/10 00:34:27;;;;;;;;;;;;;;;21.97;35.64;103407.09;7252544;19;153199;-59
2023/02/10 00:36:54;;;;;;;;;;;;;;;21.96;35.65;103395.00;7250394;19;154288;-59
2023/02/10 00:39:21;;;;;;;;;;;;;;;21.97;35.33;103393.03;7245766;19;153854;-59
2023/02/10 00:41:48;;;;;;;;;;;;;;;21.95;35.27;103393.28;7247646;19;155040;-60
2023/02/10 00:44:15;;;;;;;;;;;;;;;21.94;35.51;103390.75;7249370;19;153708;-59
2023/02/10 00:46:42;;;;;;;;;;;;;;;21.90;35.49;103381.06;7196479;19;157402;-59
2023/02/10 00:49:10;;;;;;;;;;;;;;;21.90;35.76;103392.31;7242305;19;155338;-60
2023/02/10 00:51:37;;;;;;;;;;;;;;;21.87;35.59;103387.22;7247041;19;153517;-59
2023/02/10 00:54:04;;;;;;;;;;;;;;;21.83;35.40;103386.03;7254921;19;153380;-60
2023/02/10 00:56:31;;;;;;;;;;;;;;;21.80;35.47;103395.84;7251977;19;153837;-60
2023/02/10 00:58:58;;;;;;;;;;;;;;;21.77;35.59;103395.47;7256477;19;153679;-59
2023/02/10 01:01:25;;;;;;;;;;;;;;;21.76;35.80;103405.88;7261507;19;153239;-59
2023/02/10 01:03:51;;;;;;;;;;;;;;;21.71;35.89;103406.66;7258058;19;154731;-60
2023/02/10 01:06:18;;;;;;;;;;;;;;;21.70;36.08;103404.13;7258501;19;153694;-60
2023/02/10 01:08:45;;;;;;;;;;;;;;;21.66;35.76;103403.78;7255820;19;154383;-60
2023/02/10 01:11:13;;;;;;;;;;;;;;;21.62;36.11;103396.13;7256391;19;154955;-60
2023/02/10 01:13:41;;;;;;;;;;;;;;;21.63;36.31;103401.47;7213062;19;154466;-60
2023/02/10 01:16:10;;;;;;;;;;;;;;;21.60;36.41;103390.72;7253794;19;154742;-58
2023/02/10 01:18:38;;;;;;;;;;;;;;;21.58;36.49;103394.91;7255753;19;153494;-59
2023/02/10 01:21:07;;;;;;;;;;;;;;;21.56;36.38;103395.19;7253631;19;153338;-60
2023/02/10 01:23:34;;;;;;;;;;;;;;;21.49;36.80;103394.47;7254003;19;155486;-60
2023/02/10 01:26:01;;;;;;;;;;;;;;;21.46;36.66;103400.63;7253184;19;153424;-60
2023/02/10 01:28:28;;;;;;;;;;;;;;;21.45;36.46;103398.91;7253329;19;153859;-60
2023/02/10 01:30:55;;;;;;;;;;;;;;;21.45;36.68;103404.53;7252743;19;154898;-60
2023/02/10 01:33:23;;;;;;;;;;;;;;;21.37;36.76;103404.97;7256253;19;154714;-60
2023/02/10 01:35:49;;;;;;;;;;;;;;;21.33;36.54;103409.41;7260509;19;153578;-60
2023/02/10 01:38:16;;;;;;;;;;;;;;;21.30;36.54;103398.66;7211475;19;157329;-60
2023/02/10 01:40:46;;;;;;;;;;;;;;;21.26;36.78;103397.44;7251163;19;154403;-60
2023/02/10 01:43:14;;;;;;;;;;;;;;;21.25;36.77;103390.13;7249378;19;153523;-58
2023/02/10 01:45:41;;;;;;;;;;;;;;;21.22;36.74;103382.19;7252005;19;154673;-59
2023/02/10 01:48:09;;;;;;;;;;;;;;;21.19;36.57;103389.19;7257963;19;153978;-60
2023/02/10 01:50:39;;;;;;;;;;;;;;;21.17;36.59;103390.53;7253961;19;154062;-59
2023/02/10 01:53:06;;;;;;;;;;;;;;;21.13;36.76;103393.00;7255656;19;153289;-59
2023/02/10 01:55:34;;;;;;;;;;;;;;;21.13;36.65;103387.38;7254415;19;152776;-59
2023/02/10 01:58:02;;;;;;;;;;;;;;;21.09;36.68;103396.53;7261195;19;155361;-59
2023/02/10 02:00:29;;;;;;;;;;;;;;;21.06;37.13;103397.91;7252095;19;155560;-59
2023/02/10 02:02:57;;;;;;;;;;;;;;;21.04;37.08;103396.44;7251770;19;155551;-59
2023/02/10 02:05:27;;;;;;;;;;;;;;;20.99;36.84;103391.56;7252899;19;153969;-58
2023/02/10 02:07:56;;;;;;;;;;;;;;;21.03;36.91;103397.56;7251194;19;154637;-59
2023/02/10 02:10:26;;;;;;;;;;;;;;;20.96;36.80;103397.72;7253960;19;154661;-59
2023/02/10 02:12:56;;;;;;;;;;;;;;;20.95;36.86;103398.81;7256698;19;154424;-58
2023/02/10 02:15:26;;;;;;;;;;;;;;;20.95;36.97;103397.94;7256230;19;153384;-59
2023/02/10 02:18:06;;;;;;;;;;;;;;;20.93;36.90;103403.84;7255004;19;153312;-59
2023/02/10 02:20:47;;;;;;;;;;;;;;;20.92;36.76;103395.66;7262006;19;152154;-59
2023/02/10 02:23:17;;;;;;;;;;;;;;;20.90;36.83;103400.66;7251442;19;154379;-59
2023/02/10 02:25:46;;;;;;;;;;;;;;;20.86;36.69;103403.13;7254639;19;154749;-59
2023/02/10 02:28:15;;;;;;;;;;;;;;;20.86;37.07;103403.97;7255032;19;153835;-59
2023/02/10 02:30:48;;;;;;;;;;;;;;;20.82;36.89;103410.34;7256064;19;153769;-59
2023/02/10 02:33:18;;;;;;;;;;;;;;;20.82;36.99;103414.03;7256912;19;154034;-59
2023/02/10 02:35:49;;;;;;;;;;;;;;;20.78;36.73;103410.00;7255656;19;154302;-59
2023/02/10 02:38:16;;;;;;;;;;;;;;;20.75;37.00;103404.91;7252197;19;153296;-59
2023/02/10 02:40:43;;;;;;;;;;;;;;;20.73;37.42;103415.50;7211887;19;157707;-59
2023/02/10 02:43:10;;;;;;;;;;;;;;;20.72;37.45;103413.81;7256009;19;153041;-59
2023/02/10 02:45:40;;;;;;;;;;;;;;;20.67;37.17;103410.88;7251060;19;153386;-60
2023/02/10 02:48:09;;;;;;;;;;;;;;;20.68;37.49;103398.56;7256697;19;154134;-59
2023/02/10 02:50:39;;;;;;;;;;;;;;;20.65;37.56;103401.00;7251331;19;153826;-60
2023/02/10 02:53:09;;;;;;;;;;;;;;;20.63;37.86;103395.63;7254016;19;153813;-58
2023/02/10 02:55:41;;;;;;;;;;;;;;;20.58;37.47;103403.13;7251972;19;151939;-58
2023/02/10 02:58:13;;;;;;;;;;;;;;;20.58;37.38;103401.16;7250849;19;154977;-59
2023/02/10 03:00:41;;;;;;;;;;;;;;;20.54;37.90;103411.19;7250730;19;152338;-59
2023/02/10 03:03:08;;;;;;;;;;;;;;;20.53;37.93;103411.44;7254534;19;153611;-59
2023/02/10 03:05:35;;;;;;;;;;;;;;;20.49;37.94;103404.63;7259501;19;154831;-59
2023/02/10 03:08:02;;;;;;;;;;;;;;;20.49;37.78;103405.44;7252686;19;153410;-59
2023/02/10 03:10:29;;;;;;;;;;;;;;;20.48;37.87;103395.34;7251097;19;154897;-59
2023/02/10 03:12:57;;;;;;;;;;;;;;;20.47;37.74;103392.78;7254565;19;153696;-59
2023/02/10 03:15:24;;;;;;;;;;;;;;;20.41;37.61;103391.81;7254055;19;155222;-59
2023/02/10 03:17:51;;;;;;;;;;;;;;;20.38;37.95;103395.97;7253683;19;154775;-59
2023/02/10 03:20:18;;;;;;;;;;;;;;;20.37;37.66;103397.06;7253239;19;153949;-59
2023/02/10 03:22:45;;;;;;;;;;;;;;;20.35;37.69;103387.19;7250200;19;152783;-59
2023/02/10 03:25:12;;;;;;;;;;;;;;;20.33;37.61;103389.38;7260089;19;154136;-59
2023/02/10 03:27:39;;;;;;;;;;;;;;;20.30;37.72;103393.56;7249124;19;153628;-59
2023/02/10 03:30:06;;;;;;;;;;;;;;;20.26;37.75;103383.84;7248572;19;153396;-59
2023/02/10 03:32:33;;;;;;;;;;;;;;;20.27;37.66;103382.75;7252604;19;154261;-60
2023/02/10 03:35:00;;;;;;;;;;;;;;;20.27;37.99;103379.97;7248078;19;153508;-59
2023/02/10 03:37:27;;;;;;;;;;;;;;;20.24;37.95;103379.59;7247401;19;153396;-59
2023/02/10 03:39:54;;;;;;;;;;;;;;;20.18;37.94;103370.22;7252841;19;153854;-58
2023/02/10 03:42:20;;;;;;;;;;;;;;;20.17;37.85;103376.91;7247685;19;152827;-59
2023/02/10 03:44:48;;;;;;;;;;;;;;;20.15;37.96;103381.94;7249553;19;156551;-59
2023/02/10 03:47:16;;;;;;;;;;;;;;;20.12;37.97;103392.81;7261901;19;153134;-59
2023/02/10 03:49:42;;;;;;;;;;;;;;;20.11;38.32;103388.31;7252262;19;153335;-59
2023/02/10 03:52:09;;;;;;;;;;;;;;;20.10;38.11;103392.19;7251274;19;154293;-59
2023/02/10 03:54:36;;;;;;;;;;;;;;;20.06;38.16;103383.41;7252187;19;153922;-59
2023/02/10 03:57:05;;;;;;;;;;;;;;;20.06;37.86;103382.56;7253115;19;153863;-59
2023/02/10 03:59:33;;;;;;;;;;;;;;;20.04;38.03;103376.34;7252950;19;153243;-58
2023/02/10 04:02:00;;;;;;;;;;;;;;;20.01;37.91;103372.06;7248930;19;154738;-58
2023/02/10 04:04:27;;;;;;;;;;;;;;;19.98;37.99;103366.97;7250316;19;154282;-59
2023/02/10 04:06:54;;;;;;;;;;;;;;;19.95;38.33;103359.88;7251031;19;153061;-59
2023/02/10 04:09:20;;;;;;;;;;;;;;;19.93;38.04;103355.63;7255517;19;153370;-59
2023/02/10 04:11:49;;;;;;;;;;;;;;;19.91;38.51;103349.41;7249525;19;153138;-59
2023/02/10 04:14:16;;;;;;;;;;;;;;;19.90;38.41;103372.94;7248454;19;152939;-59
2023/02/10 04:16:43;;;;;;;;;;;;;;;19.88;38.41;103370.38;7250095;19;153940;-59
2023/02/10 04:19:10;;;;;;;;;;;;;;;19.87;38.15;103384.66;7253817;19;153811;-59
2023/02/10 04:21:37;;;;;;;;;;;;;;;19.85;38.04;103389.66;7249497;19;153128;-59
2023/02/10 04:24:04;;;;;;;;;;;;;;;19.81;38.45;103380.88;7246740;19;153906;-59
2023/02/10 04:26:31;;;;;;;;;;;;;;;19.77;38.54;103376.84;7250323;19;153051;-59
2023/02/10 04:28:58;;;;;;;;;;;;;;;19.77;38.44;103376.00;7251230;19;152977;-59
2023/02/10 04:31:25;;;;;;;;;;;;;;;19.73;38.47;103374.78;7261082;19;154480;-59
2023/02/10 04:33:52;;;;;;;;;;;;;;;19.72;38.43;103370.25;7256407;19;153675;-59
2023/02/10 04:36:19;;;;;;;;;;;;;;;19.69;38.41;103363.19;7217733;19;156419;-59
2023/02/10 04:38:46;;;;;;;;;;;;;;;19.71;38.70;103377.84;7257015;19;152789;-59
2023/02/10 04:41:13;;;;;;;;;;;;;;;19.71;38.80;103388.19;7255346;19;154866;-59
2023/02/10 04:43:40;;;;;;;;;;;;;;;19.67;38.90;103395.41;7251339;19;152596;-60
2023/02/10 04:46:07;;;;;;;;;;;;;;;19.64;38.96;103401.47;7253661;19;152504;-59
2023/02/10 04:48:34;;;;;;;;;;;;;;;19.61;38.99;103374.78;7259233;19;152339;-59
2023/02/10 04:51:04;;;;;;;;;;;;;;;19.59;38.87;103365.75;7256791;19;155048;-60
2023/02/10 04:53:33;;;;;;;;;;;;;;;19.59;39.07;103376.97;7263157;19;153785;-59
2023/02/10 04:56:00;;;;;;;;;;;;;;;19.56;38.62;103371.84;7258367;19;154104;-59
2023/02/10 04:58:27;;;;;;;;;;;;;;;19.56;38.62;103371.84;7255082;19;153165;-59
2023/02/10 05:00:55;;;;;;;;;;;;;;;19.52;38.79;103367.81;7258141;19;152538;-59
2023/02/10 05:03:23;;;;;;;;;;;;;;;19.48;39.17;103366.59;7254015;19;155701;-60
2023/02/10 05:05:51;;;;;;;;;;;;;;;19.49;38.97;103365.50;7257415;19;152966;-59
2023/02/10 05:08:22;;;;;;;;;;;;;;;19.49;38.93;103373.91;7257173;19;153195;-59
2023/02/10 05:10:50;;;;;;;;;;;;;;;19.46;38.86;103378.06;7255061;19;154245;-59
2023/02/10 05:13:17;;;;;;;;;;;;;;;19.47;39.19;103379.78;7257483;19;153219;-59
2023/02/10 05:15:44;;;;;;;;;;;;;;;19.44;39.18;103377.44;7259524;19;154082;-60
2023/02/10 05:18:11;;;;;;;;;;;;;;;19.39;39.13;103373.63;7256815;19;152164;-60
2023/02/10 05:20:38;;;;;;;;;;;;;;;19.41;39.22;103380.69;7255977;19;153580;-60
2023/02/10 05:23:05;;;;;;;;;;;;;;;19.37;39.38;103375.81;7253796;19;153610;-59
2023/02/10 05:25:31;;;;;;;;;;;;;;;19.42;39.33;103381.56;7254079;19;153351;-60
2023/02/10 05:27:58;;;;;;;;;;;;;;;19.44;39.98;103371.81;7261214;19;153360;-58
2023/02/10 05:30:25;;;;;;;;;;;;;;;19.53;39.48;103377.97;7255364;19;153854;-59
2023/02/10 05:32:52;;;;;;;;;;;;;;;19.58;39.53;103380.84;7256793;19;153336;-60
2023/02/10 05:35:19;;;;;;;;;;;;;;;19.62;39.94;103382.09;7262090;19;153574;-60
2023/02/10 05:37:46;;;;;;;;;;;;;;;19.66;39.86;103380.53;7254703;19;153600;-60
2023/02/10 05:40:13;;;;;;;;;;;;;;;19.70;39.46;103383.69;7223206;19;153978;-59
2023/02/10 05:42:40;;;;;;;;;;;;;;;19.73;40.02;103381.25;7251281;19;152711;-60
2023/02/10 05:45:07;;;;;;;;;;;;;;;19.78;40.08;103380.50;7249460;19;153412;-59
2023/02/10 05:47:34;;;;;;;;;;;;;;;19.80;39.78;103376.38;7252241;19;153242;-59
2023/02/10 05:50:01;;;;;;;;;;;;;;;19.86;39.89;103383.78;7255997;19;154761;-59
2023/02/10 05:52:28;;;;;;;;;;;;;;;19.91;39.85;103385.88;7253140;19;153677;-59
2023/02/10 05:54:55;;;;;;;;;;;;;;;19.95;39.60;103384.28;7254766;19;153538;-59
2023/02/10 05:57:22;;;;;;;;;;;;;;;20.01;40.15;103391.72;7260457;19;154779;-59
2023/02/10 05:59:49;;;;;;;;;;;;;;;20.06;39.80;103388.19;7256418;19;153770;-59
2023/02/10 06:02:16;;;;;;;;;;;;;;;20.10;39.31;103389.38;7255204;19;153769;-59
2023/02/10 06:04:43;;;;;;;;;;;;;;;20.16;39.42;103397.69;7219456;19;157847;-59
2023/02/10 06:07:10;;;;;;;;;;;;;;;20.21;39.34;103380.13;7239831;19;153472;-59
2023/02/10 06:09:36;;;;;;;;;;;;;;;20.26;39.40;103383.84;7252188;19;153595;-59
2023/02/10 06:12:06;;;;;;;;;;;;;;;20.32;38.94;103382.06;7252435;19;153216;-59
2023/02/10 06:14:33;;;;;;;;;;;;;;;20.37;39.23;103379.38;7254157;19;152727;-59
2023/02/10 06:17:01;;;;;;;;;;;;;;;20.42;39.35;103379.47;7253492;19;154943;-59
2023/02/10 06:19:27;;;;;;;;;;;;;;;20.48;39.45;103383.25;7261057;19;152400;-59
2023/02/10 06:21:54;;;;;;;;;;;;;;;20.53;39.29;103386.16;7253167;19;154263;-58
2023/02/10 06:24:21;;;;;;;;;;;;;;;20.58;39.42;103398.34;7253033;19;153021;-59
2023/02/10 06:26:48;;;;;;;;;;;;;;;20.62;38.79;103399.56;7254596;19;154443;-60
2023/02/10 06:29:15;;;;;;;;;;;;;;;20.67;38.86;103393.22;7250689;19;154624;-58
2023/02/10 06:31:42;;;;;;;;;;;;;;;20.73;39.07;103395.00;7223837;19;153614;-57
2023/02/10 06:34:09;;;;;;;;;;;;;;;20.77;39.14;103402.66;7252424;19;153182;-60
2023/02/10 06:36:36;;;;;;;;;;;;;;;20.79;38.44;103408.06;7251609;19;154587;-60
2023/02/10 06:39:03;;;;;;;;;;;;;;;20.81;38.09;103412.31;7254404;19;152840;-59
2023/02/10 06:41:30;;;;;;;;;;;;;;;20.84;38.14;103409.00;7260800;19;153746;-58
2023/02/10 06:43:57;;;;;;;;;;;;;;;20.88;38.16;103405.69;7251925;19;152487;-59
2023/02/10 06:46:24;;;;;;;;;;;;;;;20.90;37.94;103409.94;7250148;19;154153;-59
2023/02/10 06:48:51;;;;;;;;;;;;;;;20.92;37.71;103404.94;7252109;19;155995;-59
2023/02/10 06:51:18;;;;;;;;;;;;;;;20.94;37.96;103399.91;7250895;19;152224;-59
2023/02/10 06:53:45;;;;;;;;;;;;;;;20.94;37.39;103388.66;7251462;19;153219;-59
2023/02/10 06:56:13;;;;;;;;;;;;;;;20.95;37.86;103398.81;7210409;19;156065;-59
2023/02/10 06:58:39;;;;;;;;;;;;;;;20.98;37.70;103392.69;7251007;19;152332;-58
2023/02/10 07:01:07;;;;;;;;;;;;;;;20.99;37.82;103399.16;7253135;19;153448;-59
2023/02/10 07:03:35;;;;;;;;;;;;;;;21.00;37.59;103395.25;7261123;19;153765;-59
2023/02/10 07:06:02;;;;;;;;;;;;;;;21.00;37.56;103412.97;7250887;19;153037;-59
2023/02/10 07:08:29;;;;;;;;;;;;;;;21.00;37.14;103418.59;7248994;19;153852;-58
2023/02/10 07:10:56;;;;;;;;;;;;;;;21.01;37.30;103422.25;7252209;19;153867;-59
2023/02/10 07:13:23;;;;;;;;;;;;;;;21.01;37.11;103420.28;7253984;19;153075;-59
2023/02/10 07:15:50;;;;;;;;;;;;;;;21.02;37.20;103423.97;7250579;19;154126;-61
2023/02/10 07:18:17;;;;;;;;;;;;;;;20.98;37.47;103425.56;7256472;19;153598;-59
2023/02/10 07:20:45;;;;;;;;;;;;;;;21.02;38.04;103429.59;7255052;19;153502;-60
2023/02/10 07:23:11;;;;;;;;;;;;;;;21.01;37.63;103427.88;7252114;19;154002;-59
2023/02/10 07:25:39;;;;;;;;;;;;;;;21.03;37.11;103420.06;7262930;19;153043;-59
2023/02/10 07:28:07;;;;;;;;;;;;;;;21.02;37.36;103413.56;7254509;19;154314;-59
2023/02/10 07:30:34;;;;;;;;;;;;;;;21.04;37.30;103419.78;7255416;19;154310;-59
2023/02/10 07:33:02;;;;;;;;;;;;;;;21.06;36.87;103426.00;7253993;19;153565;-59
2023/02/10 07:35:29;;;;;;;;;;;;;;;21.08;37.18;103422.94;7252410;19;153370;-59
2023/02/10 07:37:56;;;;;;;;;;;;;;;21.08;36.90;103420.13;7254060;19;153955;-59
2023/02/10 07:40:22;;;;;;;;;;;;;;;21.11;36.87;103419.63;7256133;19;152978;-59
2023/02/10 07:42:49;;;;;;;;;;;;;;;21.14;36.62;103414.38;7250545;19;154161;-60
2023/02/10 07:45:17;;;;;;;;;;;;;;;21.16;36.97;103423.44;7258024;19;153077;-59
2023/02/10 07:47:44;;;;;;;;;;;;;;;21.19;36.62;103430.50;7253943;19;154598;-59
2023/02/10 07:50:11;;;;;;;;;;;;;;;21.19;36.33;103425.72;7255693;19;153526;-59
2023/02/10 07:52:38;;;;;;;;;;;;;;;21.21;36.57;103423.50;7251782;19;154941;-59
2023/02/10 07:55:05;;;;;;;;;;;;;;;21.22;36.08;103422.41;7252313;19;152599;-59
2023/02/10 07:57:32;;;;;;;;;;;;;;;21.25;36.42;103421.06;7254518;19;152466;-59
2023/02/10 07:59:59;;;;;;;;;;;;;;;21.23;36.41;103418.50;7251071;19;153684;-59
2023/02/10 08:02:26;;;;;;;;;;;;;;;20.91;32.72;103425.72;7251598;19;154591;-59
2023/02/10 08:04:55;;;;;;;;;;;;;;;20.64;33.30;103425.44;7254464;19;152468;-59
2023/02/10 08:07:23;;;;;;;;;;;;;;;20.75;33.52;103432.13;7262453;19;153200;-59
2023/02/10 08:09:50;;;;;;;;;;;;;;;20.76;33.93;103437.47;7261498;19;152833;-59
2023/02/10 08:12:17;;;;;;;;;;;;;;;20.78;33.95;103437.25;7259643;19;153539;-59
2023/02/10 08:14:45;;;;;;;;;;;;;;;20.77;34.10;103432.72;7260597;19;153813;-59
2023/02/10 08:17:12;;;;;;;;;;;;;;;20.76;33.87;103429.06;7259488;19;153198;-59
2023/02/10 08:19:39;;;;;;;;;;;;;;;20.74;33.87;103428.47;7262582;19;153420;-59
2023/02/10 08:22:06;;;;;;;;;;;;;;;20.74;34.17;103424.81;7260091;19;153638;-59
2023/02/10 08:24:33;;;;;;;;;;;;;;;20.72;34.07;103435.41;7263425;19;151949;-58
2023/02/10 08:27:00;;;;;;;;;;;;;;;20.70;34.28;103429.22;7261028;19;152840;-58
2023/02/10 08:29:27;;;;;;;;;;;;;;;20.68;33.96;103426.66;7266069;19;155314;-60
2023/02/10 08:31:54;;;;;;;;;;;;;;;20.68;33.93;103437.88;7261771;19;153034;-60
2023/02/10 08:34:21;;;;;;;;;;;;;;;20.71;34.37;103433.75;7258176;19;154331;-60
2023/02/10 08:36:48;;;;;;;;;;;;;;;20.70;34.22;103437.66;7256350;19;152597;-60
2023/02/10 08:39:15;;;;;;;;;;;;;;;20.74;34.27;103434.09;7259556;19;152962;-59
2023/02/10 08:41:42;;;;;;;;;;;;;;;20.75;34.34;103441.41;7259485;19;153540;-59
2023/02/10 08:44:11;;;;;;;;;;;;;;;20.75;34.46;103435.81;7258933;19;154788;-60
2023/02/10 08:46:38;;;;;;;;;;;;;;;20.78;34.28;103438.09;7257294;19;153478;-59
2023/02/10 08:49:05;;;;;;;;;;;;;;;20.77;34.46;103430.78;7259016;19;154797;-59
2023/02/10 08:51:32;;;;;;;;;;;;;;;20.79;34.50;103442.63;7266941;19;153739;-59
2023/02/10 08:54:00;;;;;;;;;;;;;;;20.83;34.24;103441.03;7258485;19;153524;-58
2023/02/10 08:56:27;;;;;;;;;;;;;;;20.82;34.30;103444.94;7255087;19;153096;-59
2023/02/10 08:58:54;;;;;;;;;;;;;;;20.82;34.23;103456.16;7257942;19;152360;-60
2023/02/10 09:01:22;;;;;;;;;;;;;;;20.84;33.85;103451.16;7257295;19;153807;-59
2023/02/10 09:03:53;;;;;;;;;;;;;;;20.84;34.34;103464.34;7260523;19;152238;-59
2023/02/10 09:06:21;;;;;;;;;;;;;;;20.84;33.80;103461.53;7255968;19;153771;-59
2023/02/10 09:08:49;;;;;;;;;;;;;;;20.84;34.02;103458.75;7257268;19;154184;-59
2023/02/10 09:11:16;;;;;;;;;;;;;;;20.84;33.89;103453.13;7257318;19;152280;-59
2023/02/10 09:13:43;;;;;;;;;;;;;;;20.83;34.14;103457.03;7263774;19;153015;-59
2023/02/10 09:16:11;;;;;;;;;;;;;;;20.82;34.14;103460.94;7256986;19;153451;-59
2023/02/10 09:18:38;;;;;;;;;;;;;;;20.82;34.07;103463.75;7259017;19;153600;-58
2023/02/10 09:21:05;;;;;;;;;;;;;;;20.83;33.88;103462.66;7257340;19;156046;-59
2023/02/10 09:23:31;;;;;;;;;;;;;;;20.82;34.05;103460.94;7256843;19;152285;-59
2023/02/10 09:25:59;;;;;;;;;;;;;;;20.86;33.68;103464.94;7257109;19;155351;-59
2023/02/10 09:28:27;;;;;;;;;;;;;;;20.89;33.61;103463.59;7254307;19;153978;-59
2023/02/10 09:30:54;;;;;;;;;;;;;;;20.90;33.50;103468.97;7258445;19;153389;-59
2023/02/10 09:33:21;;;;;;;;;;;;;;;20.92;33.64;103472.38;7259064;19;153309;-59
2023/02/10 09:35:48;;;;;;;;;;;;;;;20.96;33.40;103467.97;7261110;19;153425;-58
2023/02/10 09:38:16;;;;;;;;;;;;;;;20.98;33.38;103471.41;7254544;19;153576;-58
2023/02/10 09:40:46;;;;;;;;;;;;;;;21.00;33.45;103477.59;7252386;19;153382;-59
2023/02/10 09:43:16;;;;;;;;;;;;;;;21.02;33.12;103471.75;7257533;19;153746;-59
2023/02/10 09:45:46;;;;;;;;;;;;;;;21.04;33.32;103467.56;7257016;19;153789;-58
2023/02/10 09:48:15;;;;;;;;;;;;;;;21.06;33.47;103458.88;7258308;19;154506;-59
2023/02/10 09:50:45;;;;;;;;;;;;;;;21.06;33.35;103459.75;7257104;19;153696;-59
2023/02/10 09:53:17;;;;;;;;;;;;;;;21.06;33.17;103451.31;7256044;19;153143;-59
2023/02/10 09:55:47;;;;;;;;;;;;;;;21.06;33.10;103448.50;7263737;19;154066;-59
2023/02/10 09:58:17;;;;;;;;;;;;;;;21.05;33.16;103452.41;7254572;19;154890;-59
2023/02/10 10:00:46;;;;;;;;;;;;;;;21.04;32.80;103453.50;7256308;19;154704;-59
2023/02/10 10:03:16;;;;;;;;;;;;;;;21.03;33.37;103460.22;7258558;19;153275;-59
2023/02/10 10:05:46;;;;;;;;;;;;;;;21.04;33.31;103458.28;7256329;19;154134;-58
2023/02/10 10:08:17;;;;;;;;;;;;;;;21.06;33.08;103461.69;7258251;19;154042;-58
2023/02/10 10:10:45;;;;;;;;;;;;;;;21.04;32.70;103458.28;7258021;19;154453;-59
2023/02/10 10:13:15;;;;;;;;;;;;;;;21.03;33.22;103473.47;7255131;19;154093;-58
2023/02/10 10:15:47;;;;;;;;;;;;;;;21.03;32.81;103479.09;7256200;19;154363;-59
2023/02/10 10:18:20;;;;;;;;;;;;;;;21.02;32.88;103468.94;7263666;19;153048;-59
2023/02/10 10:20:51;;;;;;;;;;;;;;;20.98;33.06;103470.53;7256069;19;155262;-59
2023/02/10 10:23:18;;;;;;;;;;;;;;;21.00;32.91;103474.78;7256943;19;153941;-59
2023/02/10 10:25:46;;;;;;;;;;;;;;;20.98;33.10;103477.03;7257285;19;153638;-59
2023/02/10 10:28:20;;;;;;;;;;;;;;;20.97;32.45;103478.13;7254056;19;156184;-59
2023/02/10 10:30:52;;;;;;;;;;;;;;;20.96;32.48;103478.34;7255008;19;152685;-59
2023/02/10 10:33:20;;;;;;;;;;;;;;;20.95;32.48;103487.88;7258486;19;154769;-59
2023/02/10 10:35:47;;;;;;;;;;;;;;;20.95;32.83;103482.25;7253523;19;153907;-59
2023/02/10 10:38:22;;;;;;;;;;;;;;;20.92;32.62;103475.19;7255447;19;152432;-59
2023/02/10 10:40:52;;;;;;;;;;;;;;;20.91;32.80;103476.28;7261199;19;154195;-59
2023/02/10 10:43:22;;;;;;;;;;;;;;;20.91;32.44;103472.63;7253855;19;154519;-59
2023/02/10 10:45:51;;;;;;;;;;;;;;;20.89;32.91;103472.91;7255314;19;153213;-58
2023/02/10 10:48:26;;;;;;;;;;;;;;;20.87;32.95;103472.28;7252171;19;153929;-59
2023/02/10 10:50:54;;;;;;;;;;;;;;;20.88;32.94;103474.00;7254239;19;153358;-59
2023/02/10 10:53:34;;;;;;;;;;;;;;;20.86;32.82;103474.22;7253360;19;154048;-59
2023/02/10 10:56:02;;;;;;;;;;;;;;;20.85;32.59;103477.28;7252986;19;154149;-59
2023/02/10 10:58:31;;;;;;;;;;;;;;;20.82;32.70;103477.78;7203880;19;155694;-58
2023/02/10 11:00:59;;;;;;;;;;;;;;;20.83;32.70;103476.69;7243199;19;153479;-58
2023/02/10 11:03:27;;;;;;;;;;;;;;;20.82;33.04;103467.41;7263041;19;154538;-58
2023/02/10 11:05:57;;;;;;;;;;;;;;;20.85;32.69;103466.91;7251704;19;153708;-58
2023/02/10 11:08:26;;;;;;;;;;;;;;;20.89;32.86;103469.22;7249257;19;153778;-58
2023/02/10 11:10:55;;;;;;;;;;;;;;;20.92;32.86;103471.53;7253095;19;154221;-57
2023/02/10 11:13:26;;;;;;;;;;;;;;;20.96;32.76;103473.59;7249686;19;154316;-58
2023/02/10 11:15:56;;;;;;;;;;;;;;;20.98;32.82;103476.16;7252573;19;154017;-58
2023/02/10 11:18:26;;;;;;;;;;;;;;;21.00;32.65;103463.56;7252823;19;153842;-59
2023/02/10 11:20:56;;;;;;;;;;;;;;;21.02;32.64;103455.72;7252455;19;155051;-59
2023/02/10 11:23:25;;;;;;;;;;;;;;;21.03;32.67;103454.59;7251059;19;153853;-58
2023/02/10 11:25:55;;;;;;;;;;;;;;;21.04;32.78;103449.84;7261710;19;153206;-58
2023/02/10 11:28:25;;;;;;;;;;;;;;;21.06;32.65;103447.66;7250925;19;154934;-58
2023/02/10 11:30:55;;;;;;;;;;;;;;;21.07;32.40;103444.59;7249376;19;152726;-58
2023/02/10 11:33:24;;;;;;;;;;;;;;;21.09;32.55;103441.50;7253060;19;154304;-58
2023/02/10 11:35:52;;;;;;;;;;;;;;;21.09;32.24;103430.28;7247872;19;153615;-59
2023/02/10 11:38:21;;;;;;;;;;;;;;;21.09;31.95;103427.47;7249397;19;153405;-59
2023/02/10 11:40:51;;;;;;;;;;;;;;;21.10;32.18;103426.34;7250917;19;154399;-58
2023/02/10 11:43:18;;;;;;;;;;;;;;;21.10;31.83;103423.53;7251585;19;152540;-59
2023/02/10 11:45:48;;;;;;;;;;;;;;;21.10;31.83;103418.78;7260345;19;153383;-59
2023/02/10 11:48:18;;;;;;;;;;;;;;;21.09;32.02;103410.59;7251505;19;152806;-58
2023/02/10 11:50:45;;;;;;;;;;;;;;;21.08;32.11;103408.88;7248994;19;153526;-59
2023/02/10 11:53:20;;;;;;;;;;;;;;;21.08;31.78;103412.53;7251892;19;154292;-59
2023/02/10 11:55:50;;;;;;;;;;;;;;;21.07;31.85;103410.00;7250503;19;155045;-59
2023/02/10 12:00:54;;;;;;;;;;;;;;;21.05;31.85;103404.63;7246828;19;152848;-58
2023/02/10 12:03:28;;;;;;;;;;;;;;;21.07;32.15;103402.44;7251885;19;154372;-58
2023/02/10 12:05:59;;;;;;;;;;;;;;;21.06;32.16;103394.25;7252151;19;152736;-58
2023/02/10 12:08:32;;;;;;;;;;;;;;;21.09;32.34;103397.38;7258949;19;153907;-59
2023/02/10 12:11:05;;;;;;;;;;;;;;;21.09;31.54;103396.53;7249853;19;152746;-59
2023/02/10 12:13:32;;;;;;;;;;;;;;;21.06;31.35;103392.28;7252233;19;153671;-59
2023/02/10 12:16:01;;;;;;;;;;;;;;;21.03;31.39;103395.56;7249552;19;154237;-59
2023/02/10 12:18:29;;;;;;;;;;;;;;;21.00;31.28;103386.81;7248880;19;153867;-59
2023/02/10 12:20:58;;;;;;;;;;;;;;;21.01;31.52;103388.53;7250568;19;155867;-58
2023/02/10 12:23:28;;;;;;;;;;;;;;;21.04;32.01;103386.03;7245755;19;155334;-59
2023/02/10 12:26:01;;;;;;;;;;;;;;;21.01;32.04;103391.31;7252715;19;154076;-59
2023/02/10 12:28:31;;;;;;;;;;;;;;;21.00;32.13;103389.63;7251496;19;153468;-59
2023/02/10 12:31:01;;;;;;;;;;;;;;;21.02;32.89;103379.00;7254273;19;154419;-59
2023/02/10 12:33:44;;;;;;;;;;;;;;;20.98;33.60;103380.59;7250364;19;154984;-63